createdAt,value
2019-01-24T00:02:17.868Z,26.53
2019-01-24T00:04:45.080Z,24.47
2019-01-24T00:07:12.142Z,23.53
2019-01-24T00:09:39.220Z,24.13
2019-01-24T00:12:06.329Z,25.77
2019-01-24T00:14:33.394Z,24.03
2019-01-24T00:17:00.460Z,24.47
2019-01-24T00:19:27.744Z,22.77
2019-01-24T00:21:54.806Z,19.43
2019-01-24T00:24:21.917Z,20.07
2019-01-24T00:26:48.972Z,23.57
2019-01-24T00:29:16.474Z,22.97
2019-01-24T00:31:43.684Z,23.40
2019-01-24T00:34:10.771Z,24.17
2019-01-24T00:36:38.269Z,22.40
2019-01-24T00:39:05.347Z,19.90
2019-01-24T00:41:32.418Z,22.63
2019-01-24T00:43:59.941Z,24.27
2019-01-24T00:46:27.307Z,28.30
2019-01-24T00:48:54.572Z,21.90
2019-01-24T00:51:21.659Z,19.93
2019-01-24T00:53:48.721Z,26.90
2019-01-24T00:56:15.929Z,21.53
2019-01-24T00:58:43.016Z,21.17
2019-01-24T01:01:10.117Z,22.33
2019-01-24T01:03:37.168Z,19.30
2019-01-24T01:06:04.485Z,23.07
2019-01-24T01:08:31.575Z,19.23
2019-01-24T01:10:58.682Z,19.40
2019-01-24T01:13:25.741Z,20.77
2019-01-24T01:15:53.160Z,22.67
2019-01-24T01:18:20.292Z,22.13
2019-01-24T01:20:47.372Z,25.73
2019-01-24T01:23:14.770Z,26.07
2019-01-24T01:25:41.919Z,22.20
2019-01-24T01:28:08.988Z,22.40
2019-01-24T01:30:36.059Z,22.37
2019-01-24T01:33:03.157Z,21.00
2019-01-24T01:35:30.220Z,21.20
2019-01-24T01:37:57.576Z,21.53
2019-01-24T01:40:24.887Z,19.03
2019-01-24T01:42:52.032Z,24.20
2019-01-24T01:45:19.131Z,22.10
2019-01-24T01:47:47.694Z,19.57
2019-01-24T01:50:14.753Z,23.50
2019-01-24T01:52:41.839Z,26.57
2019-01-24T01:55:08.928Z,22.40
2019-01-24T01:57:36.028Z,22.47
2019-01-24T02:00:03.124Z,23.20
2019-01-24T02:02:30.287Z,22.37
2019-01-24T02:04:57.397Z,23.50
2019-01-24T02:07:24.465Z,24.23
2019-01-24T02:09:51.584Z,27.87
2019-01-24T02:12:18.729Z,23.67
2019-01-24T02:14:45.946Z,22.13
2019-01-24T02:17:13.143Z,22.77
2019-01-24T02:19:40.236Z,25.17
2019-01-24T02:22:07.329Z,26.07
2019-01-24T02:24:34.411Z,22.30
2019-01-24T02:27:01.597Z,23.10
2019-01-24T02:29:28.789Z,21.57
2019-01-24T02:31:55.928Z,23.20
2019-01-24T02:34:23.022Z,24.03
2019-01-24T02:36:50.088Z,23.70
2019-01-24T02:39:17.155Z,21.40
2019-01-24T02:41:44.264Z,23.30
2019-01-24T02:44:11.330Z,21.23
2019-01-24T02:46:38.422Z,24.00
2019-01-24T02:49:05.636Z,23.43
2019-01-24T02:51:32.696Z,24.57
2019-01-24T02:53:59.800Z,23.10
2019-01-24T02:56:26.971Z,22.30
2019-01-24T02:58:54.274Z,24.07
2019-01-24T03:01:21.326Z,24.57
2019-01-24T03:03:48.417Z,22.53
2019-01-24T03:06:15.590Z,25.33
2019-01-24T03:08:42.703Z,21.90
2019-01-24T03:11:09.880Z,24.03
2019-01-24T03:13:36.949Z,28.53
2019-01-24T03:16:04.042Z,25.80
2019-01-24T03:18:31.096Z,23.57
2019-01-24T03:20:58.285Z,24.23
2019-01-24T03:23:26.524Z,27.40
2019-01-24T03:25:53.817Z,27.90
2019-01-24T03:28:20.877Z,23.93
2019-01-24T03:30:47.942Z,26.43
2019-01-24T03:33:15.059Z,25.57
2019-01-24T03:35:42.213Z,21.23
2019-01-24T03:38:09.275Z,22.60
2019-01-24T03:40:36.362Z,22.70
2019-01-24T03:43:03.422Z,22.60
2019-01-24T03:45:30.598Z,25.43
2019-01-24T03:47:57.671Z,27.90
2019-01-24T03:50:24.762Z,27.13
2019-01-24T03:52:51.832Z,32.00
2019-01-24T03:55:20.023Z,23.50
2019-01-24T03:57:47.198Z,25.63
2019-01-24T04:00:14.296Z,27.30
2019-01-24T04:02:41.360Z,23.93
2019-01-24T04:05:12.017Z,24.37
2019-01-24T04:07:37.518Z,25.23
2019-01-24T04:10:04.638Z,26.80
2019-01-24T04:12:31.708Z,24.33
2019-01-24T04:14:58.767Z,26.67
2019-01-24T04:17:25.923Z,30.03
2019-01-24T04:19:52.986Z,25.83
2019-01-24T04:22:20.082Z,31.47
2019-01-24T04:24:47.174Z,25.00
2019-01-24T04:27:14.308Z,29.10
2019-01-24T04:29:41.405Z,31.07
2019-01-24T04:32:08.594Z,25.37
2019-01-24T04:34:35.870Z,26.07
2019-01-24T04:37:02.938Z,27.77
2019-01-24T04:39:30.029Z,31.70
2019-01-24T04:41:57.122Z,28.70
2019-01-24T04:44:24.218Z,31.37
2019-01-24T04:46:51.293Z,26.20
2019-01-24T04:49:18.383Z,27.63
2019-01-24T04:51:45.447Z,28.87
2019-01-24T04:54:12.522Z,27.23
2019-01-24T04:56:39.635Z,30.83
2019-01-24T04:59:06.707Z,27.77
2019-01-24T05:01:33.757Z,30.93
2019-01-24T05:04:00.855Z,33.00
2019-01-24T05:06:27.912Z,27.53
2019-01-24T05:08:55.137Z,27.00
2019-01-24T05:11:22.189Z,27.97
2019-01-24T05:13:49.254Z,30.67
2019-01-24T05:16:16.489Z,28.63
2019-01-24T05:18:43.548Z,28.00
2019-01-24T05:21:10.640Z,29.13
2019-01-24T05:23:37.729Z,28.90
2019-01-24T05:26:04.886Z,30.83
2019-01-24T05:28:31.943Z,29.33
2019-01-24T05:30:59.042Z,26.73
2019-01-24T05:33:26.284Z,30.37
2019-01-24T05:35:53.344Z,35.40
2019-01-24T05:38:20.537Z,33.60
2019-01-24T05:40:47.640Z,33.70
2019-01-24T05:43:14.868Z,29.97
2019-01-24T05:45:42.085Z,31.03
2019-01-24T05:48:09.163Z,33.37
2019-01-24T05:50:36.225Z,29.17
2019-01-24T05:53:03.338Z,30.03
2019-01-24T05:55:30.486Z,33.13
2019-01-24T05:57:57.585Z,29.47
2019-01-24T06:00:24.647Z,36.87
2019-01-24T06:02:51.832Z,28.80
2019-01-24T06:05:19.118Z,31.50
2019-01-24T06:07:46.206Z,29.00
2019-01-24T06:10:13.293Z,26.67
2019-01-24T06:12:40.385Z,31.13
2019-01-24T06:15:07.516Z,28.37
2019-01-24T06:17:34.649Z,27.60
2019-01-24T06:20:01.948Z,30.10
2019-01-24T06:22:28.995Z,31.37
2019-01-24T06:24:56.284Z,32.10
2019-01-24T06:27:23.353Z,28.10
2019-01-24T06:29:50.459Z,29.07
2019-01-24T06:32:17.945Z,31.97
2019-01-24T06:34:45.176Z,40.03
2019-01-24T06:37:12.274Z,30.67
2019-01-24T06:39:39.356Z,31.83
2019-01-24T06:42:06.515Z,35.00
2019-01-24T06:44:33.582Z,35.67
2019-01-24T06:47:00.943Z,34.13
2019-01-24T06:49:28.027Z,31.97
2019-01-24T06:51:55.128Z,34.97
2019-01-24T06:54:22.485Z,32.10
2019-01-24T06:56:49.752Z,32.63
2019-01-24T06:59:16.859Z,30.00
2019-01-24T07:01:43.923Z,29.80
2019-01-24T07:04:11.032Z,29.37
2019-01-24T07:06:38.108Z,34.47
2019-01-24T07:09:05.344Z,31.13
2019-01-24T07:11:32.445Z,36.37
2019-01-24T07:13:59.507Z,30.63
2019-01-24T07:16:26.742Z,33.40
2019-01-24T07:18:53.877Z,31.90
2019-01-24T07:21:20.982Z,35.30
2019-01-24T07:23:48.091Z,34.13
2019-01-24T07:26:15.345Z,31.13
2019-01-24T07:28:42.537Z,30.60
2019-01-24T07:31:09.601Z,31.27
2019-01-24T07:33:36.669Z,31.27
2019-01-24T07:36:03.941Z,29.67
2019-01-24T07:38:31.074Z,35.17
2019-01-24T07:40:58.245Z,35.40
2019-01-24T07:43:25.498Z,30.73
2019-01-24T07:45:52.561Z,32.43
2019-01-24T07:48:19.633Z,33.63
2019-01-24T07:50:46.842Z,36.80
2019-01-24T07:53:13.900Z,37.00
2019-01-24T07:55:41.155Z,37.47
2019-01-24T07:58:08.230Z,35.77
2019-01-24T08:00:36.869Z,31.53
2019-01-24T08:03:03.997Z,36.43
2019-01-24T08:05:31.075Z,40.73
2019-01-24T08:07:58.228Z,32.87
2019-01-24T08:10:25.291Z,33.13
2019-01-24T08:12:52.386Z,37.03
2019-01-24T08:15:19.579Z,31.43
2019-01-24T08:17:46.717Z,37.90
2019-01-24T08:20:13.891Z,33.70
2019-01-24T08:22:40.954Z,33.50
2019-01-24T08:25:08.174Z,32.33
2019-01-24T08:27:35.291Z,32.10
2019-01-24T08:30:02.353Z,31.77
2019-01-24T08:32:29.454Z,34.43
2019-01-24T08:34:56.582Z,30.37
2019-01-24T08:37:23.650Z,34.70
2019-01-24T08:39:50.746Z,28.30
2019-01-24T08:42:17.814Z,34.30
2019-01-24T08:44:44.909Z,30.73
2019-01-24T08:47:12.248Z,35.23
2019-01-24T08:49:39.351Z,32.87
2019-01-24T08:52:06.439Z,30.00
2019-01-24T08:54:33.579Z,28.80
2019-01-24T08:57:00.670Z,34.37
2019-01-24T08:59:29.781Z,33.87
2019-01-24T09:01:56.778Z,36.33
2019-01-24T09:04:23.874Z,35.10
2019-01-24T09:06:50.968Z,34.07
2019-01-24T09:09:18.048Z,31.53
2019-01-24T09:11:45.137Z,33.70
2019-01-24T09:14:12.288Z,37.33
2019-01-24T09:16:39.449Z,32.80
2019-01-24T09:19:06.681Z,30.13
2019-01-24T09:21:33.782Z,36.03
2019-01-24T09:24:00.856Z,34.67
2019-01-24T09:26:28.068Z,35.40
2019-01-24T09:28:55.154Z,32.37
2019-01-24T09:31:22.241Z,46.00
2019-01-24T09:33:49.306Z,29.50
2019-01-24T09:36:16.437Z,36.83
2019-01-24T09:38:43.540Z,34.80
2019-01-24T09:41:10.697Z,31.30
2019-01-24T09:43:37.769Z,32.33
2019-01-24T09:46:05.078Z,33.07
2019-01-24T09:48:32.413Z,33.27
2019-01-24T09:50:59.506Z,33.00
2019-01-24T09:53:26.601Z,32.97
2019-01-24T09:55:53.675Z,34.90
2019-01-24T09:58:20.910Z,30.97
2019-01-24T10:00:48.050Z,29.97
2019-01-24T10:03:15.689Z,34.77
2019-01-24T10:05:42.770Z,32.57
2019-01-24T10:08:09.844Z,31.00
2019-01-24T10:10:36.955Z,30.80
2019-01-24T10:13:04.029Z,31.93
2019-01-24T10:15:31.260Z,29.80
2019-01-24T10:17:58.566Z,35.80
2019-01-24T10:20:25.661Z,29.10
2019-01-24T10:22:52.784Z,32.70
2019-01-24T10:25:19.924Z,32.70
2019-01-24T10:27:47.117Z,34.40
2019-01-24T10:30:14.312Z,38.00
2019-01-24T10:32:41.378Z,29.30
2019-01-24T10:35:08.528Z,34.73
2019-01-24T10:37:35.721Z,35.27
2019-01-24T10:40:02.835Z,33.20
2019-01-24T10:42:29.980Z,30.37
2019-01-24T10:44:57.270Z,26.90
2019-01-24T10:47:24.525Z,31.47
2019-01-24T10:49:51.575Z,34.87
2019-01-24T10:52:18.743Z,32.30
2019-01-24T10:54:45.905Z,35.30
2019-01-24T10:57:13.117Z,38.80
2019-01-24T10:59:40.177Z,32.90
2019-01-24T11:02:07.240Z,31.60
2019-01-24T11:04:34.357Z,33.63
2019-01-24T11:07:01.417Z,29.67
2019-01-24T11:09:28.520Z,30.40
2019-01-24T11:11:55.604Z,31.43
2019-01-24T11:14:22.691Z,39.53
2019-01-24T11:16:49.763Z,35.90
2019-01-24T11:19:16.862Z,36.60
2019-01-24T11:21:43.937Z,37.20
2019-01-24T11:24:11.090Z,26.60
2019-01-24T11:26:38.207Z,32.63
2019-01-24T11:29:05.364Z,33.37
2019-01-24T11:31:32.464Z,39.50
2019-01-24T11:33:59.570Z,37.47
2019-01-24T11:36:26.694Z,31.47
2019-01-24T11:38:53.785Z,29.33
2019-01-24T11:41:20.969Z,35.97
2019-01-24T11:43:48.091Z,33.73
2019-01-24T11:46:15.153Z,37.07
2019-01-24T11:48:42.356Z,32.97
2019-01-24T11:51:09.426Z,33.30
2019-01-24T11:53:36.529Z,33.93
2019-01-24T11:56:03.589Z,37.03
2019-01-24T11:58:31.006Z,34.80
2019-01-24T12:00:58.077Z,40.00
2019-01-24T12:03:25.146Z,35.00
2019-01-24T12:05:52.343Z,33.67
2019-01-24T12:08:19.447Z,31.47
2019-01-24T12:10:47.220Z,36.30
2019-01-24T12:13:14.328Z,32.77
2019-01-24T12:15:46.515Z,29.13
2019-01-24T12:18:15.539Z,32.27
2019-01-24T12:20:43.087Z,35.50
2019-01-24T12:23:10.172Z,31.43
2019-01-24T12:25:37.369Z,32.80
2019-01-24T12:28:06.356Z,35.13
2019-01-24T12:30:33.496Z,30.03
2019-01-24T12:33:04.224Z,34.37
2019-01-24T12:35:31.417Z,36.47
2019-01-24T12:37:59.324Z,31.97
2019-01-24T12:40:26.438Z,39.27
2019-01-24T12:42:53.550Z,36.83
2019-01-24T12:45:20.844Z,35.53
2019-01-24T12:47:47.913Z,34.53
2019-01-24T12:50:15.012Z,33.00
2019-01-24T12:52:42.109Z,30.80
2019-01-24T12:55:13.618Z,31.73
2019-01-24T12:57:40.785Z,32.00
2019-01-24T13:00:10.539Z,33.70
2019-01-24T13:02:37.646Z,32.00
2019-01-24T13:05:04.737Z,30.40
2019-01-24T13:07:31.825Z,32.40
2019-01-24T13:09:58.921Z,28.40
2019-01-24T13:12:26.022Z,36.47
2019-01-24T13:14:53.093Z,30.83
2019-01-24T13:17:20.507Z,31.90
2019-01-24T13:19:47.668Z,32.13
2019-01-24T13:22:14.782Z,32.37
2019-01-24T13:24:41.988Z,29.70
2019-01-24T13:27:09.075Z,32.20
2019-01-24T13:29:36.133Z,34.73
2019-01-24T13:32:03.246Z,30.17
2019-01-24T13:34:30.385Z,29.00
2019-01-24T13:36:57.637Z,32.70
2019-01-24T13:39:24.877Z,32.77
2019-01-24T13:41:51.949Z,32.90
2019-01-24T13:44:19.039Z,29.00
2019-01-24T13:46:46.174Z,33.03
2019-01-24T13:49:13.303Z,43.87
2019-01-24T13:51:40.427Z,39.83
2019-01-24T13:54:07.520Z,39.10
2019-01-24T13:56:34.605Z,35.97
2019-01-24T13:59:01.701Z,34.70
2019-01-24T14:01:40.106Z,41.90
2019-01-24T14:04:05.352Z,42.10
2019-01-24T14:06:32.509Z,34.33
2019-01-24T14:08:59.590Z,38.00
2019-01-24T14:11:26.824Z,38.97
2019-01-24T14:13:53.907Z,38.13
2019-01-24T14:16:21.043Z,34.20
2019-01-24T14:18:48.104Z,40.60
2019-01-24T14:21:15.201Z,32.77
2019-01-24T14:23:42.398Z,57.50
2019-01-24T14:26:10.507Z,37.23
2019-01-24T14:28:37.724Z,37.43
2019-01-24T14:31:05.024Z,30.37
2019-01-24T14:33:32.091Z,36.07
2019-01-24T14:35:59.145Z,34.80
2019-01-24T14:38:26.347Z,45.23
2019-01-24T14:40:53.409Z,38.50
2019-01-24T14:43:20.529Z,32.13
2019-01-24T14:45:47.667Z,36.00
2019-01-24T14:48:14.938Z,35.07
2019-01-24T14:50:42.006Z,32.93
2019-01-24T14:53:09.107Z,37.33
2019-01-24T14:55:36.301Z,37.27
2019-01-24T14:58:03.372Z,33.73
2019-01-24T15:00:30.516Z,40.50
2019-01-24T15:02:57.627Z,37.10
2019-01-24T15:05:24.900Z,35.50
2019-01-24T15:07:51.984Z,34.83
2019-01-24T15:10:19.164Z,33.63
2019-01-24T15:12:46.312Z,43.13
2019-01-24T15:15:13.519Z,33.07
2019-01-24T15:17:40.580Z,38.97
2019-01-24T15:20:07.682Z,37.13
2019-01-24T15:22:34.800Z,40.93
2019-01-24T15:25:01.866Z,33.23
2019-01-24T15:27:29.133Z,37.03
2019-01-24T15:29:56.269Z,35.87
2019-01-24T15:32:23.970Z,33.43
2019-01-24T15:34:51.038Z,32.63
2019-01-24T15:37:18.138Z,30.53
2019-01-24T15:39:45.247Z,32.30
2019-01-24T15:42:12.388Z,31.43
2019-01-24T15:44:39.462Z,35.77
2019-01-24T15:47:06.532Z,33.87
2019-01-24T15:49:33.786Z,34.13
2019-01-24T15:52:00.852Z,36.63
2019-01-24T15:54:28.095Z,34.17
2019-01-24T15:56:55.247Z,39.70
2019-01-24T15:59:22.427Z,40.40
2019-01-24T16:01:49.523Z,37.13
2019-01-24T16:04:19.934Z,38.00
2019-01-24T16:06:45.384Z,36.63
2019-01-24T16:09:12.504Z,34.03
2019-01-24T16:11:39.642Z,33.70
2019-01-24T16:14:06.799Z,37.63
2019-01-24T16:16:33.901Z,38.63
2019-01-24T16:19:01.031Z,36.93
2019-01-24T16:21:28.091Z,40.00
2019-01-24T16:23:55.192Z,36.30
2019-01-24T16:26:22.254Z,49.17
2019-01-24T16:28:49.319Z,43.70
2019-01-24T16:31:16.558Z,44.80
2019-01-24T16:33:43.691Z,44.37
2019-01-24T16:36:10.756Z,42.50
2019-01-24T16:38:37.905Z,36.50
2019-01-24T16:41:04.989Z,38.70
2019-01-24T16:43:32.051Z,36.30
2019-01-24T16:45:59.245Z,33.97
2019-01-24T16:48:26.344Z,40.50
2019-01-24T16:50:53.460Z,37.10
2019-01-24T16:53:20.528Z,36.17
2019-01-24T16:55:47.601Z,34.13
2019-01-24T16:58:14.906Z,35.90
2019-01-24T17:00:41.987Z,35.77
2019-01-24T17:03:09.050Z,36.70
2019-01-24T17:05:36.276Z,36.27
2019-01-24T17:08:03.443Z,34.97
2019-01-24T17:10:30.697Z,31.80
2019-01-24T17:12:57.818Z,33.97
2019-01-24T17:15:25.388Z,39.03
2019-01-24T17:17:52.598Z,32.50
2019-01-24T17:20:19.719Z,46.97
2019-01-24T17:22:46.859Z,47.80
2019-01-24T17:25:13.930Z,42.13
2019-01-24T17:27:46.108Z,44.37
2019-01-24T17:30:09.953Z,44.20
2019-01-24T17:32:37.126Z,37.23
2019-01-24T17:35:04.313Z,35.83
2019-01-24T17:37:31.382Z,37.50
2019-01-24T17:39:58.467Z,36.27
2019-01-24T17:42:25.539Z,34.63
2019-01-24T17:44:52.708Z,37.30
2019-01-24T17:47:20.005Z,40.90
2019-01-24T17:49:47.142Z,54.23
2019-01-24T17:52:14.265Z,38.63
2019-01-24T17:54:41.522Z,38.50
2019-01-24T17:57:08.593Z,33.53
2019-01-24T17:59:35.673Z,36.77
2019-01-24T18:02:02.785Z,32.83
2019-01-24T18:04:30.172Z,37.40
2019-01-24T18:06:57.283Z,39.50
2019-01-24T18:09:24.435Z,42.40
2019-01-24T18:11:51.539Z,39.13
2019-01-24T18:14:18.679Z,36.53
2019-01-24T18:16:45.770Z,33.87
2019-01-24T18:19:12.867Z,33.47
2019-01-24T18:21:40.071Z,33.53
2019-01-24T18:24:07.256Z,33.97
2019-01-24T18:26:34.557Z,34.33
2019-01-24T18:29:01.656Z,34.50
2019-01-24T18:31:28.783Z,35.00
2019-01-24T18:33:55.871Z,32.20
2019-01-24T18:36:23.176Z,32.57
2019-01-24T18:38:50.236Z,34.03
2019-01-24T18:41:17.385Z,33.23
2019-01-24T18:43:44.484Z,36.10
2019-01-24T18:46:11.768Z,34.93
2019-01-24T18:48:38.885Z,39.23
2019-01-24T18:51:05.998Z,34.73
2019-01-24T18:53:33.105Z,31.20
2019-01-24T18:56:00.354Z,35.10
2019-01-24T18:58:27.486Z,34.07
2019-01-24T19:00:54.643Z,29.90
2019-01-24T19:03:21.733Z,29.70
2019-01-24T19:05:48.969Z,35.00
2019-01-24T19:08:16.087Z,40.77
2019-01-24T19:10:43.218Z,32.80
2019-01-24T19:13:10.427Z,40.93
2019-01-24T19:15:38.158Z,37.90
2019-01-24T19:18:05.436Z,31.30
2019-01-24T19:20:32.566Z,31.07
2019-01-24T19:22:59.628Z,36.90
2019-01-24T19:25:28.149Z,31.40
2019-01-24T19:27:55.887Z,41.03
2019-01-24T19:30:24.738Z,31.53
2019-01-24T19:32:51.877Z,38.67
2019-01-24T19:35:20.160Z,36.10
2019-01-24T19:37:48.189Z,32.67
2019-01-24T19:40:15.355Z,35.70
2019-01-24T19:42:42.583Z,34.43
2019-01-24T19:45:09.670Z,29.63
2019-01-24T19:47:36.970Z,30.97
2019-01-24T19:50:04.085Z,29.70
2019-01-24T19:52:31.168Z,33.90
2019-01-24T19:54:58.235Z,33.23
2019-01-24T19:57:25.370Z,32.10
2019-01-24T19:59:52.461Z,32.00
2019-01-24T20:02:19.978Z,31.60
2019-01-24T20:04:47.025Z,31.10
2019-01-24T20:07:14.169Z,27.77
2019-01-24T20:09:41.265Z,31.77
2019-01-24T20:12:08.353Z,29.20
2019-01-24T20:14:35.545Z,31.07
2019-01-24T20:17:02.708Z,38.63
2019-01-24T20:19:29.816Z,44.60
2019-01-24T20:21:56.869Z,34.43
2019-01-24T20:24:24.033Z,38.27
2019-01-24T20:26:51.102Z,34.93
2019-01-24T20:29:19.420Z,36.03
2019-01-24T20:31:46.828Z,33.03
2019-01-24T20:34:13.927Z,39.10
2019-01-24T20:36:40.994Z,33.40
2019-01-24T20:39:08.088Z,35.73
2019-01-24T20:41:35.205Z,34.40
2019-01-24T20:44:02.269Z,33.03
2019-01-24T20:46:29.550Z,33.90
2019-01-24T20:48:56.617Z,29.43
2019-01-24T20:51:23.726Z,28.07
2019-01-24T20:53:50.828Z,29.93
2019-01-24T20:56:17.885Z,45.73
2019-01-24T20:58:44.945Z,29.70
2019-01-24T21:01:12.201Z,33.10
2019-01-24T21:03:39.327Z,30.93
2019-01-24T21:06:06.408Z,29.30
2019-01-24T21:08:36.704Z,29.73
2019-01-24T21:11:03.843Z,30.30
2019-01-24T21:13:30.914Z,30.60
2019-01-24T21:15:58.178Z,28.93
2019-01-24T21:18:25.264Z,29.83
2019-01-24T21:20:52.330Z,26.53
2019-01-24T21:23:19.472Z,28.17
2019-01-24T21:25:46.651Z,29.17
2019-01-24T21:28:13.789Z,27.73
2019-01-24T21:30:41.055Z,26.60
2019-01-24T21:33:08.189Z,40.67
2019-01-24T21:35:35.313Z,29.80
2019-01-24T21:38:02.419Z,28.17
2019-01-24T21:40:29.558Z,29.33
2019-01-24T21:42:56.644Z,42.27
2019-01-24T21:45:23.951Z,27.87
2019-01-24T21:47:51.018Z,27.00
2019-01-24T21:50:18.570Z,28.43
2019-01-24T21:52:45.913Z,25.57
2019-01-24T21:55:13.239Z,28.00
2019-01-24T21:57:40.343Z,23.77
2019-01-24T22:00:07.460Z,32.73
2019-01-24T22:02:34.539Z,21.47
2019-01-24T22:05:01.611Z,28.63
2019-01-24T22:07:28.808Z,25.77
2019-01-24T22:09:55.874Z,25.20
2019-01-24T22:12:22.969Z,24.90
2019-01-24T22:14:50.147Z,27.80
2019-01-24T22:17:17.825Z,27.03
2019-01-24T22:19:44.879Z,26.50
2019-01-24T22:22:12.127Z,23.87
2019-01-24T22:24:39.291Z,25.23
2019-01-24T22:27:07.447Z,24.30
2019-01-24T22:29:34.539Z,26.03
2019-01-24T22:32:01.605Z,24.93
2019-01-24T22:34:28.694Z,25.00
2019-01-24T22:36:55.797Z,22.57
2019-01-24T22:39:22.861Z,25.47
2019-01-24T22:41:49.958Z,28.60
2019-01-24T22:44:17.069Z,31.27
2019-01-24T22:46:44.150Z,22.50
2019-01-24T22:49:11.491Z,26.83
2019-01-24T22:51:38.583Z,24.87
2019-01-24T22:54:05.736Z,24.83
2019-01-24T22:56:35.433Z,27.67
2019-01-24T22:59:01.605Z,24.53
2019-01-24T23:01:28.669Z,25.43
2019-01-24T23:03:55.748Z,23.23
2019-01-24T23:06:23.326Z,22.27
2019-01-24T23:08:50.393Z,24.33
2019-01-24T23:11:17.580Z,21.73
2019-01-24T23:13:44.663Z,22.77
2019-01-24T23:16:11.887Z,27.80
2019-01-24T23:18:38.994Z,22.40
2019-01-24T23:21:06.092Z,24.50
2019-01-24T23:23:33.187Z,21.73
2019-01-24T23:26:00.258Z,20.70
2019-01-24T23:28:27.537Z,19.10
2019-01-24T23:30:54.616Z,23.13
2019-01-24T23:33:21.771Z,21.17
2019-01-24T23:35:48.876Z,22.17
2019-01-24T23:38:15.947Z,17.93
2019-01-24T23:40:43.196Z,23.83
2019-01-24T23:43:10.248Z,21.90
2019-01-24T23:45:37.411Z,21.47
2019-01-24T23:48:04.466Z,19.30
2019-01-24T23:50:31.572Z,21.50
2019-01-24T23:52:58.656Z,16.37
2019-01-24T23:55:26.054Z,17.53
2019-01-24T23:57:53.198Z,17.93
